Time;durP1;ratioP1;P1;durP2;ratioP2;P2;SDS_P1;SDS_P2;PMS_P1;PMS_P2;Temp;Humidity;BMP_temperature;BMP_pressure;BME280_temperature;BME280_humidity;BME280_pressure;Samples;Min_cycle;Max_cycle;Signal;HPM_P1;HPM_P2
2024/03/11 00:02:27;;;;;;;2.40;2.20;;;;;;;;;;5053259;28;20413;-81
2024/03/11 00:04:54;;;;;;;2.80;2.20;;;;;;;;;;5053299;28;20385;-81
2024/03/11 00:07:20;;;;;;;2.70;2.50;;;;;;;;;;5052747;28;20451;-81
2024/03/11 00:09:48;;;;;;;8.13;7.33;;;;;;;;;;5053186;28;20380;-81
2024/03/11 00:12:22;;;;;;;7.43;6.73;;;;;;;;;;5053381;28;20370;-81
2024/03/11 00:14:51;;;;;;;3.60;3.30;;;;;;;;;;5052799;28;20373;-81
2024/03/11 00:17:17;;;;;;;2.50;2.30;;;;;;;;;;5052810;28;20377;-81
2024/03/11 00:19:44;;;;;;;2.37;2.20;;;;;;;;;;5052870;28;20381;-82
2024/03/11 00:22:11;;;;;;;2.58;2.38;;;;;;;;;;5052617;28;20388;-81
2024/03/11 00:24:37;;;;;;;2.00;1.90;;;;;;;;;;5052555;28;20382;-81
2024/03/11 00:27:07;;;;;;;2.10;2.00;;;;;;;;;;5052270;28;20507;-81
2024/03/11 00:29:34;;;;;;;2.30;2.10;;;;;;;;;;5052220;28;20509;-81
2024/03/11 00:32:02;;;;;;;2.47;2.28;;;;;;;;;;5052461;28;20705;-81
2024/03/11 00:34:29;;;;;;;2.33;2.10;;;;;;;;;;5052813;28;20863;-81
2024/03/11 00:36:55;;;;;;;2.30;2.10;;;;;;;;;;5052534;28;20388;-81
2024/03/11 00:39:22;;;;;;;2.33;2.10;;;;;;;;;;5052533;28;20381;-81
2024/03/11 00:41:48;;;;;;;2.30;2.10;;;;;;;;;;5052713;28;20378;-81
2024/03/11 00:44:15;;;;;;;2.15;1.95;;;;;;;;;;5052521;28;20419;-82
2024/03/11 00:46:41;;;;;;;2.78;2.30;;;;;;;;;;5052777;28;20377;-81
2024/03/11 00:49:07;;;;;;;2.45;2.25;;;;;;;;;;5052585;28;20409;-82
2024/03/11 00:51:35;;;;;;;2.33;2.13;;;;;;;;;;5040242;28;20378;-81
2024/03/11 00:54:01;;;;;;;2.25;2.13;;;;;;;;;;5052319;28;20378;-81
2024/03/11 00:56:27;;;;;;;2.55;2.35;;;;;;;;;;5052564;28;20731;-81
2024/03/11 00:58:53;;;;;;;2.50;2.30;;;;;;;;;;5052759;28;20424;-81
2024/03/11 01:01:19;;;;;;;2.25;2.05;;;;;;;;;;5052192;28;20420;-81
2024/03/11 01:03:45;;;;;;;4.00;2.40;;;;;;;;;;5053003;28;20613;-81
2024/03/11 01:06:11;;;;;;;2.30;2.10;;;;;;;;;;5052439;28;20980;-81
2024/03/11 01:08:38;;;;;;;2.60;2.40;;;;;;;;;;5052352;28;20409;-81
2024/03/11 01:11:04;;;;;;;2.58;2.38;;;;;;;;;;5052590;28;20378;-81
2024/03/11 01:13:30;;;;;;;2.53;2.33;;;;;;;;;;5052527;28;20521;-81
2024/03/11 01:15:56;;;;;;;3.13;2.50;;;;;;;;;;5052479;28;20386;-81
2024/03/11 01:18:24;;;;;;;2.65;2.30;;;;;;;;;;5055358;28;20693;-81
2024/03/11 01:20:51;;;;;;;3.75;3.45;;;;;;;;;;5056681;28;20382;-81
2024/03/11 01:23:18;;;;;;;3.22;2.92;;;;;;;;;;5053066;28;20413;-81
2024/03/11 01:25:44;;;;;;;3.22;2.90;;;;;;;;;;5056103;28;20419;-81
2024/03/11 01:28:10;;;;;;;3.10;2.80;;;;;;;;;;5055759;28;20397;-81
2024/03/11 01:30:36;;;;;;;3.20;2.90;;;;;;;;;;5055384;28;20748;-81
2024/03/11 01:33:04;;;;;;;3.20;3.00;;;;;;;;;;5055863;28;20382;-81
2024/03/11 01:35:30;;;;;;;3.00;2.80;;;;;;;;;;5055896;28;20376;-81
2024/03/11 01:37:56;;;;;;;3.08;2.78;;;;;;;;;;5055860;28;20452;-81
2024/03/11 01:40:22;;;;;;;3.17;2.95;;;;;;;;;;5055870;28;20808;-81
2024/03/11 01:42:50;;;;;;;2.72;2.53;;;;;;;;;;5055478;28;20416;-81
2024/03/11 01:45:16;;;;;;;3.00;2.80;;;;;;;;;;5055302;28;20442;-81
2024/03/11 01:47:43;;;;;;;3.45;2.95;;;;;;;;;;5055248;28;20854;-81
2024/03/11 01:50:09;;;;;;;3.30;3.00;;;;;;;;;;5054297;28;20763;-81
2024/03/11 01:52:43;;;;;;;3.28;2.97;;;;;;;;;;5055271;28;20369;-81
2024/03/11 01:55:10;;;;;;;3.67;3.33;;;;;;;;;;5055305;28;20414;-81
2024/03/11 01:57:36;;;;;;;3.72;3.42;;;;;;;;;;5055348;28;20734;-82
2024/03/11 02:00:08;;;;;;;3.75;3.45;;;;;;;;;;5055309;28;20396;-81
2024/03/11 02:02:34;;;;;;;3.60;3.20;;;;;;;;;;5055194;28;20922;-81
2024/03/11 02:05:02;;;;;;;3.25;3.00;;;;;;;;;;5054930;28;20377;-81
2024/03/11 02:07:29;;;;;;;3.58;3.28;;;;;;;;;;5054768;28;20405;-81
2024/03/11 02:09:55;;;;;;;3.65;3.35;;;;;;;;;;5055146;28;20388;-81
2024/03/11 02:12:21;;;;;;;3.40;3.10;;;;;;;;;;5055052;28;20385;-81
2024/03/11 02:14:48;;;;;;;3.58;3.28;;;;;;;;;;5054665;28;20381;-81
2024/03/11 02:17:15;;;;;;;3.88;3.47;;;;;;;;;;5054406;28;20388;-81
2024/03/11 02:19:41;;;;;;;3.42;2.97;;;;;;;;;;5054727;28;20819;-81
2024/03/11 02:22:08;;;;;;;3.50;3.20;;;;;;;;;;5054640;28;20468;-81
2024/03/11 02:24:38;;;;;;;3.58;3.28;;;;;;;;;;5054654;28;20381;-81
2024/03/11 02:27:05;;;;;;;3.20;2.90;;;;;;;;;;5054175;28;20774;-81
2024/03/11 02:29:31;;;;;;;3.45;2.75;;;;;;;;;;5053290;28;20463;-81
2024/03/11 02:31:57;;;;;;;3.17;2.90;;;;;;;;;;5054224;28;20411;-81
2024/03/11 02:34:23;;;;;;;3.72;2.90;;;;;;;;;;5054159;28;20818;-81
2024/03/11 02:36:50;;;;;;;3.15;2.85;;;;;;;;;;5054105;28;20378;-81
2024/03/11 02:39:19;;;;;;;3.13;2.83;;;;;;;;;;5053963;28;20439;-81
2024/03/11 02:41:45;;;;;;;2.90;2.70;;;;;;;;;;5054348;28;20373;-81
2024/03/11 02:44:12;;;;;;;3.28;2.97;;;;;;;;;;5054301;28;20455;-81
2024/03/11 02:46:39;;;;;;;3.15;2.85;;;;;;;;;;5054007;28;20457;-81
2024/03/11 02:49:05;;;;;;;2.92;2.53;;;;;;;;;;5053949;28;20409;-81
2024/03/11 02:51:31;;;;;;;3.45;2.53;;;;;;;;;;5054378;28;20374;-81
2024/03/11 02:53:57;;;;;;;2.78;2.58;;;;;;;;;;5053863;28;20847;-81
2024/03/11 02:56:23;;;;;;;2.83;2.53;;;;;;;;;;5053994;28;20382;-81
2024/03/11 02:58:49;;;;;;;2.63;2.42;;;;;;;;;;5042628;28;20880;-81
2024/03/11 03:01:16;;;;;;;2.67;2.47;;;;;;;;;;5053553;28;20523;-81
2024/03/11 03:03:42;;;;;;;2.72;2.30;;;;;;;;;;5053637;28;20428;-81
2024/03/11 03:06:08;;;;;;;2.50;2.30;;;;;;;;;;5054076;28;20435;-82
2024/03/11 03:08:35;;;;;;;2.30;2.10;;;;;;;;;;5053313;28;20397;-81
2024/03/11 03:11:02;;;;;;;2.50;2.30;;;;;;;;;;5053748;28;20385;-81
2024/03/11 03:13:29;;;;;;;2.40;2.20;;;;;;;;;;5053650;28;20374;-81
2024/03/11 03:15:56;;;;;;;2.55;2.35;;;;;;;;;;5053756;28;20384;-81
2024/03/11 03:18:22;;;;;;;2.42;2.22;;;;;;;;;;5054466;28;20384;-82
2024/03/11 03:20:48;;;;;;;2.33;2.17;;;;;;;;;;5054371;28;20468;-81
2024/03/11 03:23:14;;;;;;;2.40;2.20;;;;;;;;;;5053493;28;20416;-81
2024/03/11 03:25:40;;;;;;;2.60;2.40;;;;;;;;;;5053891;28;20462;-81
2024/03/11 03:28:06;;;;;;;2.90;2.15;;;;;;;;;;5052081;28;20833;-81
2024/03/11 03:30:33;;;;;;;2.40;2.20;;;;;;;;;;5053853;28;20471;-81
2024/03/11 03:32:59;;;;;;;2.60;2.40;;;;;;;;;;5041919;28;20422;-82
2024/03/11 03:35:25;;;;;;;2.50;2.30;;;;;;;;;;5053601;28;20381;-81
2024/03/11 03:37:55;;;;;;;2.50;2.30;;;;;;;;;;5053482;28;20408;-81
2024/03/11 03:40:22;;;;;;;2.35;2.15;;;;;;;;;;5052813;28;20457;-81
2024/03/11 03:42:49;;;;;;;2.58;2.35;;;;;;;;;;5053242;28;20389;-81
2024/03/11 03:45:15;;;;;;;2.28;2.08;;;;;;;;;;5053431;28;20882;-81
2024/03/11 03:47:42;;;;;;;2.78;2.50;;;;;;;;;;5053400;28;20487;-81
2024/03/11 03:50:11;;;;;;;2.17;1.97;;;;;;;;;;5053175;28;20778;-81
2024/03/11 03:52:47;;;;;;;2.35;2.25;;;;;;;;;;5053660;28;20373;-81
2024/03/11 03:55:14;;;;;;;2.28;2.08;;;;;;;;;;5053732;28;20381;-81
2024/03/11 03:57:40;;;;;;;2.45;2.25;;;;;;;;;;5053546;28;20911;-81
2024/03/11 04:00:15;;;;;;;2.53;2.33;;;;;;;;;;5053081;28;20374;-81
2024/03/11 04:02:41;;;;;;;2.70;2.50;;;;;;;;;;5053247;28;20874;-81
2024/03/11 04:05:07;;;;;;;2.50;2.30;;;;;;;;;;5053630;28;20390;-81
2024/03/11 04:07:33;;;;;;;2.50;2.30;;;;;;;;;;5053817;28;20412;-81
2024/03/11 04:09:59;;;;;;;2.80;2.60;;;;;;;;;;5053957;28;20377;-81
2024/03/11 04:12:25;;;;;;;2.80;2.60;;;;;;;;;;5053600;28;20451;-81
2024/03/11 04:14:51;;;;;;;3.35;3.15;;;;;;;;;;5053389;28;20405;-81
2024/03/11 04:17:17;;;;;;;3.10;2.80;;;;;;;;;;5053539;28;20409;-81
2024/03/11 04:19:44;;;;;;;3.28;3.08;;;;;;;;;;5053114;28;20927;-81
2024/03/11 04:22:11;;;;;;;3.15;2.95;;;;;;;;;;5053153;28;20747;-81
2024/03/11 04:24:37;;;;;;;2.85;2.65;;;;;;;;;;5053146;28;20386;-82
2024/03/11 04:27:05;;;;;;;3.22;3.03;;;;;;;;;;5053936;28;20527;-81
2024/03/11 04:29:31;;;;;;;3.20;2.90;;;;;;;;;;5053295;28;20382;-81
2024/03/11 04:31:57;;;;;;;3.28;3.08;;;;;;;;;;5054197;28;20377;-81
2024/03/11 04:34:23;;;;;;;3.50;3.30;;;;;;;;;;5050563;28;20392;-81
2024/03/11 04:36:49;;;;;;;3.15;2.95;;;;;;;;;;5050503;28;20378;-81
2024/03/11 04:39:15;;;;;;;3.08;2.88;;;;;;;;;;5049615;28;20381;-81
2024/03/11 04:41:42;;;;;;;3.00;2.80;;;;;;;;;;5052520;28;20723;-82
2024/03/11 04:44:08;;;;;;;2.70;2.50;;;;;;;;;;5053698;28;20381;-81
2024/03/11 04:46:38;;;;;;;2.92;2.72;;;;;;;;;;5054232;28;20389;-82
2024/03/11 04:49:05;;;;;;;3.70;3.40;;;;;;;;;;5053419;28;20432;-81
2024/03/11 04:51:31;;;;;;;4.00;3.70;;;;;;;;;;5053559;28;20460;-81
2024/03/11 04:53:57;;;;;;;3.50;3.30;;;;;;;;;;5053891;28;20412;-82
2024/03/11 04:56:23;;;;;;;4.30;4.00;;;;;;;;;;5057894;28;20851;-81
2024/03/11 04:58:49;;;;;;;4.40;4.10;;;;;;;;;;5057441;28;20374;-81
2024/03/11 05:01:16;;;;;;;3.72;3.53;;;;;;;;;;5057162;28;20731;-81
2024/03/11 05:03:42;;;;;;;3.58;3.38;;;;;;;;;;5057452;28;20377;-81
2024/03/11 05:06:08;;;;;;;3.90;3.60;;;;;;;;;;5050305;28;20396;-81
2024/03/11 05:08:34;;;;;;;4.25;3.95;;;;;;;;;;5057238;28;20435;-81
2024/03/11 05:11:00;;;;;;;3.97;3.67;;;;;;;;;;5058003;28;20427;-81
2024/03/11 05:13:28;;;;;;;4.22;3.92;;;;;;;;;;5057747;28;20743;-82
2024/03/11 05:15:54;;;;;;;4.28;3.95;;;;;;;;;;5057049;28;20380;-81
2024/03/11 05:18:22;;;;;;;4.28;3.97;;;;;;;;;;5057623;28;20739;-81
2024/03/11 05:20:48;;;;;;;4.97;4.60;;;;;;;;;;5057151;28;20462;-82
2024/03/11 05:23:14;;;;;;;4.75;4.35;;;;;;;;;;5057068;28;20855;-81
2024/03/11 05:25:41;;;;;;;4.70;4.40;;;;;;;;;;5057029;28;20385;-81
2024/03/11 05:28:07;;;;;;;4.78;4.47;;;;;;;;;;5056892;28;20898;-81
2024/03/11 05:30:33;;;;;;;4.10;3.80;;;;;;;;;;5055274;28;20554;-81
2024/03/11 05:32:59;;;;;;;4.47;4.07;;;;;;;;;;5057421;28;20392;-82
2024/03/11 05:35:25;;;;;;;5.18;4.78;;;;;;;;;;5057284;28;20867;-81
2024/03/11 05:37:52;;;;;;;4.68;4.32;;;;;;;;;;5056815;28;20396;-81
2024/03/11 05:40:18;;;;;;;4.55;4.15;;;;;;;;;;5056602;28;20385;-81
2024/03/11 05:42:48;;;;;;;4.47;4.18;;;;;;;;;;5056612;28;20384;-81
2024/03/11 05:45:14;;;;;;;4.38;4.07;;;;;;;;;;5056145;28;20393;-80
2024/03/11 05:47:41;;;;;;;4.78;4.43;;;;;;;;;;5057405;28;20421;-81
2024/03/11 05:50:09;;;;;;;5.18;4.78;;;;;;;;;;5057107;28;20536;-81
2024/03/11 05:52:35;;;;;;;5.13;4.72;;;;;;;;;;5052111;28;20737;-81
2024/03/11 05:55:08;;;;;;;5.10;4.70;;;;;;;;;;5047553;28;20411;-81
2024/03/11 05:57:35;;;;;;;5.20;4.80;;;;;;;;;;5056690;28;20452;-82
2024/03/11 06:00:03;;;;;;;4.80;4.50;;;;;;;;;;5056197;28;20382;-81
2024/03/11 06:02:29;;;;;;;5.22;4.75;;;;;;;;;;5056471;28;20389;-81
2024/03/11 06:04:55;;;;;;;4.80;4.50;;;;;;;;;;5055268;28;20405;-81
2024/03/11 06:07:25;;;;;;;5.40;5.00;;;;;;;;;;5056025;28;20409;-81
2024/03/11 06:09:51;;;;;;;5.88;5.47;;;;;;;;;;5055995;28;20374;-81
2024/03/11 06:12:19;;;;;;;5.75;5.35;;;;;;;;;;5055524;28;20794;-82
2024/03/11 06:14:45;;;;;;;5.97;5.57;;;;;;;;;;5056657;28;20381;-82
2024/03/11 06:17:12;;;;;;;5.50;5.10;;;;;;;;;;5056804;28;20374;-81
2024/03/11 06:19:39;;;;;;;5.53;5.13;;;;;;;;;;5057392;28;20507;-82
2024/03/11 06:22:05;;;;;;;5.18;4.78;;;;;;;;;;5057526;28;20844;-82
2024/03/11 06:24:32;;;;;;;5.50;5.10;;;;;;;;;;5057027;28;20392;-83
2024/03/11 06:26:58;;;;;;;5.20;4.80;;;;;;;;;;5056174;28;20378;-81
2024/03/11 06:29:28;;;;;;;6.00;5.50;;;;;;;;;;5055325;28;20388;-82
2024/03/11 06:31:55;;;;;;;5.10;4.70;;;;;;;;;;5056790;28;20380;-83
2024/03/11 06:34:23;;;;;;;5.28;4.68;;;;;;;;;;5055601;28;20377;-82
2024/03/11 06:36:49;;;;;;;5.93;5.53;;;;;;;;;;5054457;28;20403;-81
2024/03/11 06:39:15;;;;;;;7.00;6.40;;;;;;;;;;5055467;28;20432;-81
2024/03/11 06:41:41;;;;;;;6.30;5.80;;;;;;;;;;5054921;28;20464;-82
2024/03/11 06:44:11;;;;;;;6.85;6.35;;;;;;;;;;5055870;28;20419;-81
2024/03/11 06:46:37;;;;;;;6.45;5.95;;;;;;;;;;5055759;28;20381;-83
2024/03/11 06:49:06;;;;;;;6.43;5.93;;;;;;;;;;5056156;28;20433;-82
2024/03/11 06:51:32;;;;;;;6.45;5.95;;;;;;;;;;5057343;28;20427;-82
2024/03/11 06:54:01;;;;;;;7.40;6.78;;;;;;;;;;5057228;28;20468;-82
2024/03/11 06:56:27;;;;;;;7.13;6.63;;;;;;;;;;5057769;28;20374;-82
2024/03/11 06:58:54;;;;;;;7.55;6.95;;;;;;;;;;5055838;28;20401;-82
2024/03/11 07:01:20;;;;;;;7.95;7.35;;;;;;;;;;5054453;28;20381;-82
2024/03/11 07:03:46;;;;;;;12.65;11.35;;;;;;;;;;5053991;28;20384;-81
2024/03/11 07:06:12;;;;;;;9.68;8.77;;;;;;;;;;5053470;28;20385;-81
2024/03/11 07:08:38;;;;;;;8.43;7.83;;;;;;;;;;5053867;28;20408;-82
2024/03/11 07:11:05;;;;;;;9.55;8.65;;;;;;;;;;5054119;28;20424;-82
2024/03/11 07:13:32;;;;;;;9.77;8.88;;;;;;;;;;5053004;28;20549;-82
2024/03/11 07:15:58;;;;;;;10.23;9.32;;;;;;;;;;5055246;28;20409;-82
2024/03/11 07:18:24;;;;;;;10.25;9.30;;;;;;;;;;5055891;28;20890;-82
2024/03/11 07:20:52;;;;;;;9.38;8.57;;;;;;;;;;5058021;28;20391;-82
2024/03/11 07:23:19;;;;;;;19.53;8.60;;;;;;;;;;5057125;28;20751;-83
2024/03/11 07:25:45;;;;;;;11.20;9.23;;;;;;;;;;5057594;28;20389;-81
2024/03/11 07:28:12;;;;;;;11.32;9.35;;;;;;;;;;5058193;28;20413;-82
2024/03/11 07:30:39;;;;;;;15.13;10.85;;;;;;;;;;5058562;28;20401;-82
2024/03/11 07:33:06;;;;;;;18.90;10.75;;;;;;;;;;5058199;28;20388;-82
2024/03/11 07:35:32;;;;;;;13.55;10.15;;;;;;;;;;5055772;28;20416;-83
2024/03/11 07:37:59;;;;;;;12.25;10.35;;;;;;;;;;5057469;28;20743;-82
2024/03/11 07:40:25;;;;;;;16.47;10.20;;;;;;;;;;5055315;28;20381;-82
2024/03/11 07:42:51;;;;;;;16.27;10.63;;;;;;;;;;5057401;28;20389;-82
2024/03/11 07:45:20;;;;;;;12.30;10.15;;;;;;;;;;5055346;28;20434;-83
2024/03/11 07:47:46;;;;;;;13.73;11.00;;;;;;;;;;5057087;28;20425;-82
2024/03/11 07:50:13;;;;;;;16.33;12.20;;;;;;;;;;5055897;28;20459;-82
2024/03/11 07:52:39;;;;;;;17.45;13.02;;;;;;;;;;5055745;28;20373;-82
2024/03/11 07:55:06;;;;;;;14.90;9.35;;;;;;;;;;5055490;28;20385;-83
2024/03/11 07:57:33;;;;;;;14.30;11.00;;;;;;;;;;5056157;28;20387;-82
2024/03/11 08:00:00;;;;;;;10.55;9.43;;;;;;;;;;5055293;28;20393;-82
2024/03/11 08:02:27;;;;;;;10.25;9.25;;;;;;;;;;5054141;28;20421;-82
2024/03/11 08:04:55;;;;;;;12.70;10.30;;;;;;;;;;5056063;28;20389;-82
2024/03/11 08:07:22;;;;;;;10.85;9.68;;;;;;;;;;5055656;28;20895;-82
2024/03/11 08:09:48;;;;;;;22.27;9.10;;;;;;;;;;5053797;28;20467;-82
2024/03/11 08:12:14;;;;;;;11.50;10.30;;;;;;;;;;5055724;28;20407;-82
2024/03/11 08:14:40;;;;;;;10.83;9.73;;;;;;;;;;5055639;28;20427;-82
2024/03/11 08:17:06;;;;;;;11.85;10.60;;;;;;;;;;5044432;28;20394;-82
2024/03/11 08:19:33;;;;;;;11.35;10.13;;;;;;;;;;5051949;28;20469;-82
2024/03/11 08:21:59;;;;;;;15.02;10.82;;;;;;;;;;5055931;28;20373;-82
2024/03/11 08:24:25;;;;;;;13.77;10.95;;;;;;;;;;5054847;28;20468;-82
2024/03/11 08:26:51;;;;;;;13.73;10.40;;;;;;;;;;5056767;28;20413;-82
2024/03/11 08:29:17;;;;;;;13.88;10.43;;;;;;;;;;5058437;28;20402;-82
2024/03/11 08:31:47;;;;;;;12.65;10.05;;;;;;;;;;5060554;28;20388;-83
2024/03/11 08:34:13;;;;;;;13.13;11.00;;;;;;;;;;5059993;28;20483;-82
2024/03/11 08:36:42;;;;;;;11.65;10.52;;;;;;;;;;5056563;28;20480;-82
2024/03/11 08:39:10;;;;;;;11.00;9.80;;;;;;;;;;5051496;28;20984;-82
2024/03/11 08:41:37;;;;;;;11.57;10.38;;;;;;;;;;5059905;28;20874;-82
2024/03/11 08:44:03;;;;;;;11.55;10.13;;;;;;;;;;5059518;28;20389;-82
2024/03/11 08:46:30;;;;;;;11.52;9.55;;;;;;;;;;5058512;28;20476;-81
2024/03/11 08:48:57;;;;;;;9.60;8.70;;;;;;;;;;5056910;28;20421;-81
2024/03/11 08:51:23;;;;;;;9.33;8.53;;;;;;;;;;5056593;28;20377;-81
2024/03/11 08:53:49;;;;;;;7.60;6.80;;;;;;;;;;5056545;28;20392;-82
2024/03/11 08:56:15;;;;;;;8.35;7.55;;;;;;;;;;5056380;28;20460;-80
2024/03/11 08:58:41;;;;;;;8.13;7.33;;;;;;;;;;5056705;28;20728;-81
2024/03/11 09:01:08;;;;;;;8.50;7.70;;;;;;;;;;5056164;28;20377;-81
2024/03/11 09:03:34;;;;;;;9.10;8.30;;;;;;;;;;5055062;28;20381;-81
2024/03/11 09:06:02;;;;;;;10.27;8.60;;;;;;;;;;5056895;28;20389;-82
2024/03/11 09:08:28;;;;;;;11.00;9.90;;;;;;;;;;5053478;28;20405;-81
2024/03/11 09:10:54;;;;;;;12.25;11.05;;;;;;;;;;5054665;28;20393;-80
2024/03/11 09:13:20;;;;;;;17.48;12.98;;;;;;;;;;5055082;28;20858;-79
2024/03/11 09:15:46;;;;;;;13.82;11.93;;;;;;;;;;5056488;28;20464;-79
2024/03/11 09:18:13;;;;;;;17.70;13.60;;;;;;;;;;5056241;28;20377;-79
2024/03/11 09:20:39;;;;;;;20.57;14.97;;;;;;;;;;5056215;28;20464;-80
2024/03/11 09:23:08;;;;;;;19.20;14.48;;;;;;;;;;5056230;28;20410;-80
2024/03/11 09:25:36;;;;;;;16.80;13.60;;;;;;;;;;5055147;28;20755;-80
2024/03/11 09:28:03;;;;;;;14.90;13.30;;;;;;;;;;5055258;28;20401;-79
2024/03/11 09:30:35;;;;;;;15.65;12.73;;;;;;;;;;5054913;28;20390;-79
2024/03/11 09:33:01;;;;;;;13.40;11.75;;;;;;;;;;5055582;28;20370;-79
2024/03/11 09:35:28;;;;;;;12.57;11.27;;;;;;;;;;5055507;28;20382;-80
2024/03/11 09:37:55;;;;;;;12.23;10.90;;;;;;;;;;5055931;28;20485;-79
2024/03/11 09:40:23;;;;;;;11.85;10.05;;;;;;;;;;5054325;28;20484;-81
2024/03/11 09:42:50;;;;;;;8.98;8.07;;;;;;;;;;5053125;28;20711;-79
2024/03/11 09:45:22;;;;;;;8.50;7.60;;;;;;;;;;5053479;28;20394;-81
2024/03/11 09:47:57;;;;;;;8.85;7.82;;;;;;;;;;5055898;28;20491;-80
2024/03/11 09:50:30;;;;;;;7.57;6.88;;;;;;;;;;5055350;28;20448;-80
2024/03/11 09:52:58;;;;;;;5.22;4.35;;;;;;;;;;5054498;28;20382;-80
2024/03/11 09:55:28;;;;;;;7.30;6.60;;;;;;;;;;5054179;28;20392;-79
2024/03/11 09:57:54;;;;;;;7.72;6.95;;;;;;;;;;5055423;28;20381;-80
2024/03/11 10:00:23;;;;;;;8.55;6.78;;;;;;;;;;5055631;28;20385;-79
2024/03/11 10:02:52;;;;;;;7.50;6.70;;;;;;;;;;5055069;28;20392;-79
2024/03/11 10:05:19;;;;;;;7.68;6.97;;;;;;;;;;5055440;28;20381;-79
2024/03/11 10:07:46;;;;;;;10.38;9.35;;;;;;;;;;5055618;28;20401;-80
2024/03/11 10:10:12;;;;;;;8.75;7.88;;;;;;;;;;5055429;28;20381;-79
2024/03/11 10:12:52;;;;;;;9.63;8.63;;;;;;;;;;5055086;28;20405;-80
2024/03/11 10:15:29;;;;;;;10.30;9.20;;;;;;;;;;5055149;28;20392;-80
2024/03/11 10:18:01;;;;;;;10.65;9.60;;;;;;;;;;5055514;28;20408;-80
2024/03/11 10:20:27;;;;;;;10.27;9.17;;;;;;;;;;5055642;28;20412;-80
2024/03/11 10:23:04;;;;;;;10.95;9.07;;;;;;;;;;5055534;28;20393;-80
2024/03/11 10:25:31;;;;;;;8.48;7.68;;;;;;;;;;5054722;28;20386;-80
2024/03/11 10:27:58;;;;;;;6.38;5.78;;;;;;;;;;5055894;28;20873;-80
2024/03/11 10:30:26;;;;;;;7.07;6.43;;;;;;;;;;5056374;28;20385;-81
2024/03/11 10:32:55;;;;;;;6.70;6.10;;;;;;;;;;5056085;28;20870;-80
2024/03/11 10:35:21;;;;;;;6.50;5.90;;;;;;;;;;5056933;28;20472;-80
2024/03/11 10:37:50;;;;;;;6.07;5.57;;;;;;;;;;5056950;28;20386;-80
2024/03/11 10:40:20;;;;;;;5.28;4.78;;;;;;;;;;5055915;28;20434;-80
2024/03/11 10:42:53;;;;;;;6.10;5.50;;;;;;;;;;5054726;28;20393;-79
2024/03/11 10:45:32;;;;;;;3.63;3.33;;;;;;;;;;5050035;28;20413;-79
2024/03/11 10:48:00;;;;;;;3.28;2.97;;;;;;;;;;5047431;28;20413;-79
2024/03/11 10:50:33;;;;;;;3.55;3.20;;;;;;;;;;5053753;28;20409;-80
2024/03/11 10:53:03;;;;;;;4.00;3.60;;;;;;;;;;5054372;28;20381;-79
2024/03/11 10:55:32;;;;;;;4.13;3.72;;;;;;;;;;5054782;28;20393;-80
2024/03/11 10:58:04;;;;;;;4.00;3.65;;;;;;;;;;5054473;28;20874;-80
2024/03/11 11:00:40;;;;;;;4.43;2.80;;;;;;;;;;5054553;28;20385;-81
2024/03/11 11:03:13;;;;;;;2.97;2.67;;;;;;;;;;5057946;28;20443;-79
2024/03/11 11:05:43;;;;;;;2.55;1.50;;;;;;;;;;5054739;28;20397;-81
2024/03/11 11:08:12;;;;;;;1.33;1.20;;;;;;;;;;5053860;28;20771;-80
2024/03/11 11:10:39;;;;;;;1.30;0.90;;;;;;;;;;5041053;28;20712;-80
2024/03/11 11:13:05;;;;;;;1.47;1.20;;;;;;;;;;5054046;28;20433;-80
2024/03/11 11:15:35;;;;;;;1.75;1.25;;;;;;;;;;5052756;28;20783;-81
2024/03/11 11:18:02;;;;;;;1.90;1.20;;;;;;;;;;5054110;28;20386;-80
2024/03/11 11:20:37;;;;;;;1.20;1.08;;;;;;;;;;5054203;28;20386;-81
2024/03/11 11:23:05;;;;;;;2.10;1.00;;;;;;;;;;5054397;28;20392;-80
2024/03/11 11:25:39;;;;;;;1.30;1.20;;;;;;;;;;5054124;28;20416;-80
2024/03/11 11:28:07;;;;;;;1.73;1.20;;;;;;;;;;5053976;28;20402;-80
2024/03/11 11:30:32;;;;;;;0.53;0.53;;;;;;;;;;5052496;28;20381;-80
2024/03/11 11:33:01;;;;;;;1.10;1.05;;;;;;;;;;5054232;28;20704;-80
2024/03/11 11:35:37;;;;;;;0.90;0.80;;;;;;;;;;5054496;28;20385;-80
2024/03/11 11:38:27;;;;;;;1.60;0.50;;;;;;;;;;5054202;28;20391;-80
2024/03/11 11:40:53;;;;;;;0.70;0.70;;;;;;;;;;5053558;28;21091;-80
2024/03/11 11:43:54;;;;;;;1.35;0.52;;;;;;;;;;5053525;28;20720;-80
2024/03/11 11:46:52;;;;;;;0.70;0.50;;;;;;;;;;5053304;28;20389;-80
2024/03/11 11:49:23;;;;;;;0.43;0.43;;;;;;;;;;5051777;28;20433;-80
2024/03/11 11:51:57;;;;;;;0.60;0.60;;;;;;;;;;5052171;28;20402;-80
2024/03/11 11:54:26;;;;;;;0.50;0.50;;;;;;;;;;5052298;28;20748;-80
2024/03/11 11:57:02;;;;;;;0.95;0.60;;;;;;;;;;5053737;28;20389;-80
2024/03/11 11:59:28;;;;;;;0.65;0.43;;;;;;;;;;5053952;28;20385;-80
2024/03/11 12:01:54;;;;;;;1.05;0.50;;;;;;;;;;5052177;28;20389;-81
2024/03/11 12:04:20;;;;;;;1.05;0.60;;;;;;;;;;5053914;28;20382;-80
2024/03/11 12:06:50;;;;;;;0.75;0.57;;;;;;;;;;5053728;28;20382;-80
2024/03/11 12:09:16;;;;;;;1.52;0.52;;;;;;;;;;5053434;28;20854;-81
2024/03/11 12:11:48;;;;;;;0.70;0.50;;;;;;;;;;5051808;28;20394;-80
2024/03/11 12:14:15;;;;;;;0.50;0.50;;;;;;;;;;5053390;28;20414;-80
2024/03/11 12:16:42;;;;;;;0.50;0.50;;;;;;;;;;5050984;28;20401;-80
2024/03/11 12:19:11;;;;;;;0.85;0.70;;;;;;;;;;5050451;28;20421;-80
2024/03/11 12:21:41;;;;;;;2.20;0.60;;;;;;;;;;5048193;28;20398;-80
2024/03/11 12:24:11;;;;;;;0.50;0.50;;;;;;;;;;5034764;28;20383;-80
2024/03/11 12:26:38;;;;;;;0.90;0.57;;;;;;;;;;5051344;28;20398;-80
2024/03/11 12:29:16;;;;;;;1.20;0.60;;;;;;;;;;5053224;28;20405;-80
2024/03/11 12:31:42;;;;;;;0.93;0.60;;;;;;;;;;5052924;28;20396;-80
2024/03/11 12:34:09;;;;;;;0.90;0.80;;;;;;;;;;5053220;28;20385;-80
2024/03/11 12:36:39;;;;;;;0.40;0.40;;;;;;;;;;5052587;28;20376;-80
2024/03/11 12:39:16;;;;;;;0.77;0.60;;;;;;;;;;5051489;28;20421;-80
2024/03/11 12:41:42;;;;;;;1.17;0.73;;;;;;;;;;5045441;28;20373;-80
2024/03/11 12:44:17;;;;;;;0.55;0.50;;;;;;;;;;5051357;28;20421;-80
2024/03/11 12:46:44;;;;;;;0.60;0.50;;;;;;;;;;5052434;28;20408;-80
2024/03/11 12:49:14;;;;;;;1.27;0.70;;;;;;;;;;5051909;28;20412;-81
2024/03/11 12:51:41;;;;;;;1.47;0.50;;;;;;;;;;5051319;28;20436;-80
2024/03/11 12:54:19;;;;;;;0.77;0.60;;;;;;;;;;5053574;28;20373;-80
2024/03/11 12:56:51;;;;;;;0.45;0.40;;;;;;;;;;5053650;28;20439;-81
2024/03/11 12:59:17;;;;;;;0.55;0.52;;;;;;;;;;5052791;28;20393;-80
2024/03/11 13:01:43;;;;;;;0.90;0.50;;;;;;;;;;5053544;28;20394;-81
2024/03/11 13:04:19;;;;;;;0.95;0.50;;;;;;;;;;5053826;28;20445;-81
2024/03/11 13:06:45;;;;;;;0.50;0.33;;;;;;;;;;5053752;28;20378;-81
2024/03/11 13:09:24;;;;;;;0.90;0.52;;;;;;;;;;5051538;28;20413;-81
2024/03/11 13:12:01;;;;;;;0.93;0.68;;;;;;;;;;5053110;28;20373;-81
2024/03/11 13:14:27;;;;;;;1.50;0.50;;;;;;;;;;5055568;28;20388;-81
2024/03/11 13:16:53;;;;;;;1.95;0.52;;;;;;;;;;5056292;28;20790;-81
2024/03/11 13:19:25;;;;;;;0.63;0.40;;;;;;;;;;5056084;28;20389;-81
2024/03/11 13:21:51;;;;;;;0.70;0.45;;;;;;;;;;5056738;28;20377;-80
2024/03/11 13:24:23;;;;;;;0.57;0.45;;;;;;;;;;5056090;28;20396;-80
2024/03/11 13:26:49;;;;;;;0.60;0.40;;;;;;;;;;5056605;28;20373;-81
2024/03/11 13:29:16;;;;;;;1.10;0.40;;;;;;;;;;5056575;28;20424;-81
2024/03/11 13:31:43;;;;;;;2.25;0.50;;;;;;;;;;5056549;28;20427;-80
2024/03/11 13:34:09;;;;;;;1.27;0.50;;;;;;;;;;5056241;28;20385;-80
2024/03/11 13:36:35;;;;;;;1.05;0.47;;;;;;;;;;5056697;28;20370;-81
2024/03/11 13:39:03;;;;;;;0.90;0.40;;;;;;;;;;5055748;28;20416;-80
2024/03/11 13:41:35;;;;;;;0.90;0.60;;;;;;;;;;5056312;28;20378;-81
2024/03/11 13:44:10;;;;;;;0.73;0.50;;;;;;;;;;5055812;28;20377;-80
2024/03/11 13:46:37;;;;;;;1.08;0.60;;;;;;;;;;5055942;28;20389;-81
2024/03/11 13:49:03;;;;;;;0.30;0.30;;;;;;;;;;5056039;28;20448;-80
2024/03/11 13:51:29;;;;;;;0.50;0.50;;;;;;;;;;5056380;28;20381;-81
2024/03/11 13:53:55;;;;;;;1.50;0.38;;;;;;;;;;5056100;28;20412;-80
2024/03/11 13:56:21;;;;;;;1.10;0.47;;;;;;;;;;5055717;28;20384;-80
2024/03/11 13:58:49;;;;;;;0.95;0.40;;;;;;;;;;5056094;28;20381;-81
2024/03/11 14:01:16;;;;;;;1.15;0.52;;;;;;;;;;5055961;28;20377;-81
2024/03/11 14:03:42;;;;;;;0.80;0.60;;;;;;;;;;5056352;28;20393;-81
2024/03/11 14:06:08;;;;;;;2.00;0.57;;;;;;;;;;5055903;28;20428;-80
2024/03/11 14:08:37;;;;;;;0.60;0.40;;;;;;;;;;5055161;28;20432;-80
2024/03/11 14:11:05;;;;;;;0.80;0.50;;;;;;;;;;5055391;28;20385;-80
2024/03/11 14:13:33;;;;;;;0.60;0.40;;;;;;;;;;5055523;28;20408;-81
2024/03/11 14:16:00;;;;;;;0.43;0.40;;;;;;;;;;5055247;28;20378;-80
2024/03/11 14:18:26;;;;;;;0.80;0.60;;;;;;;;;;5055786;28;20373;-81
2024/03/11 14:20:52;;;;;;;1.23;0.65;;;;;;;;;;5055963;28;20381;-81
2024/03/11 14:23:18;;;;;;;0.90;0.60;;;;;;;;;;5049546;28;20390;-80
2024/03/11 14:25:45;;;;;;;2.90;0.70;;;;;;;;;;5052850;28;20385;-81
2024/03/11 14:28:12;;;;;;;1.25;0.70;;;;;;;;;;5048217;28;20416;-80
2024/03/11 14:30:40;;;;;;;1.42;0.68;;;;;;;;;;5055540;28;20373;-80
2024/03/11 14:33:07;;;;;;;1.20;0.40;;;;;;;;;;5055215;28;20385;-81
2024/03/11 14:35:33;;;;;;;4.20;0.60;;;;;;;;;;5055108;28;20432;-80
2024/03/11 14:38:00;;;;;;;0.63;0.30;;;;;;;;;;5055227;28;20855;-81
2024/03/11 14:40:29;;;;;;;4.20;0.50;;;;;;;;;;5055243;28;20385;-81
2024/03/11 14:42:59;;;;;;;1.08;0.45;;;;;;;;;;5055187;28;20796;-80
2024/03/11 14:45:25;;;;;;;0.85;0.30;;;;;;;;;;5055033;28;20874;-81